Ronnie Rogers — WDD2270 — position and weather

sailwx.info

Track history (hours):
 
Tides and Currents Weather Stations Pressure Air Temp Water Temp Dewpoint Dewpoint Depression Visibility Wind Speed Wind Dir Waves Ship Positions

Ronnie Rogers

Owner: Florida Marine, LLC, Mandeville, LA. More information available from US FCC via Universal Licensing System and Coast Guard Vessel Documentation Center.

Last reported at 2017-Jun-21 02:20 UTC. Time now 2017-Jun-23 07:00 UTC.
Position N 29°31' W 094°53'.

Length 27 m; draft 2.4 m.

Type: Towing. MMSI: 367113160.

Date/timePositionNaut miles runAvg speedWind from/ knotsBaromVisibWave heightAir tempDewpointWater temp
2017-Jun-21 02:20N 29°31' W 094°53'310.6
2017-Jun-21 02:01N 29°33' W 094°55'5 9.9
2017-Jun-21 01:30N 29°38' W 094°58'5 9.9
2017-Jun-21 00:59N 29°42' W 095°01'  
2017-Jun-17 02:45N 29°44' W 095°08'2 0.1
2017-Jun-15 21:38N 29°45' W 095°10'3 7.7
2017-Jun-15 21:14N 29°45' W 095°06'2 5.8
2017-Jun-15 20:52N 29°45' W 095°04'3 7.8
2017-Jun-15 20:29N 29°43' W 095°01'5 8.4
2017-Jun-15 19:52N 29°39' W 094°58'3 9.0
2017-Jun-15 19:31N 29°36' W 094°56'  
2017-Jun-13 04:10N 29°30' W 094°52'210.8
2017-Jun-13 04:00N 29°31' W 094°53'510.3
2017-Jun-13 03:30N 29°35' W 094°56'510.5
2017-Jun-13 03:00N 29°40' W 094°59'5 9.1
2017-Jun-13 02:25N 29°44' W 095°03'3 0.2
2017-Jun-12 04:19N 29°46' W 095°06'3 7.2
2017-Jun-12 03:57N 29°45' W 095°04'4 8.5
2017-Jun-12 03:29N 29°42' W 095°00'4 9.3
2017-Jun-12 03:00N 29°38' W 094°58'3 6.9
2017-Jun-12 02:30N 29°37' W 095°01'0 0.3
2017-Jun-12 02:00N 29°37' W 095°02'0 0.0
2017-Jun-12 01:30N 29°37' W 095°02'0 0.0
2017-Jun-12 01:00N 29°37' W 095°02'0 0.0
2017-Jun-12 00:30N 29°37' W 095°02'0 0.0
2017-Jun-12 00:00N 29°37' W 095°02'0 0.0
2017-Jun-11 23:30N 29°37' W 095°02'0 0.0
2017-Jun-11 23:01N 29°37' W 095°02'0 0.0
2017-Jun-11 22:30N 29°37' W 095°02'0 0.0
2017-Jun-11 22:00N 29°37' W 095°02'0 0.0
2017-Jun-11 21:31N 29°37' W 095°02'0 0.0
2017-Jun-11 21:01N 29°37' W 095°02'0 0.0
2017-Jun-11 20:31N 29°37' W 095°02'0 0.0
2017-Jun-11 20:00N 29°37' W 095°02'0 0.0
2017-Jun-11 19:30N 29°37' W 095°02'0 0.0
2017-Jun-11 19:00N 29°37' W 095°02'0 0.0
2017-Jun-11 18:30N 29°37' W 095°02'0 0.0
2017-Jun-11 18:00N 29°37' W 095°02'0 0.0
2017-Jun-11 17:30N 29°37' W 095°02'0 0.0
2017-Jun-11 17:00N 29°37' W 095°02'0 0.0
2017-Jun-11 16:30N 29°37' W 095°02'0 0.0
2017-Jun-11 16:00N 29°37' W 095°02'0 0.0
2017-Jun-11 15:30N 29°37' W 095°02'0 0.1
2017-Jun-11 15:00N 29°37' W 095°01'0 0.0
2017-Jun-11 14:00N 29°37' W 095°01'0 0.0
2017-Jun-11 13:30N 29°37' W 095°01'0 0.3
2017-Jun-11 13:00N 29°37' W 095°01'0 0.1
2017-Jun-11 12:30N 29°37' W 095°01'0 0.0
2017-Jun-11 12:00N 29°37' W 095°01'0 0.0
2017-Jun-11 11:30N 29°37' W 095°01'0 0.0
2017-Jun-11 11:00N 29°37' W 095°01'0 0.0
2017-Jun-11 10:30N 29°37' W 095°01'0 0.0
2017-Jun-11 10:00N 29°37' W 095°01'0 0.3
2017-Jun-11 09:30N 29°37' W 095°01'3 6.5
2017-Jun-11 09:00N 29°37' W 094°57'3 7.0
2017-Jun-11 08:30N 29°40' W 094°59'3 6.6
2017-Jun-11 07:59N 29°43' W 095°01'  
Track history (hours):
 
Tides and Currents Weather Stations Pressure Air Temp Water Temp Dewpoint Dewpoint Depression Visibility Wind Speed Wind Dir Waves Ship Positions

Ronnie Rogers

Owner: Florida Marine, LLC, Mandeville, LA. More information available from US FCC via Universal Licensing System and Coast Guard Vessel Documentation Center.

Last reported at 2017-Jun-21 02:20 UTC. Time now 2017-Jun-23 07:00 UTC.
Position N 29°31' W 094°53'.

Length 27 m; draft 2.4 m.

Type: Towing. MMSI: 367113160.

Date/timePositionNaut miles runAvg speedWind from/ knotsBaromVisibWave heightAir tempDewpointWater temp
2017-Jun-21 02:20N 29°31' W 094°53'310.6
2017-Jun-21 02:01N 29°33' W 094°55'5 9.9
2017-Jun-21 01:30N 29°38' W 094°58'5 9.9
2017-Jun-21 00:59N 29°42' W 095°01'  
2017-Jun-17 02:45N 29°44' W 095°08'2 0.1
2017-Jun-15 21:38N 29°45' W 095°10'3 7.7
2017-Jun-15 21:14N 29°45' W 095°06'2 5.8
2017-Jun-15 20:52N 29°45' W 095°04'3 7.8
2017-Jun-15 20:29N 29°43' W 095°01'5 8.4
2017-Jun-15 19:52N 29°39' W 094°58'3 9.0
2017-Jun-15 19:31N 29°36' W 094°56'  
2017-Jun-13 04:10N 29°30' W 094°52'210.8
2017-Jun-13 04:00N 29°31' W 094°53'510.3
2017-Jun-13 03:30N 29°35' W 094°56'510.5
2017-Jun-13 03:00N 29°40' W 094°59'5 9.1
2017-Jun-13 02:25N 29°44' W 095°03'3 0.2
2017-Jun-12 04:19N 29°46' W 095°06'3 7.2
2017-Jun-12 03:57N 29°45' W 095°04'4 8.5
2017-Jun-12 03:29N 29°42' W 095°00'4 9.3
2017-Jun-12 03:00N 29°38' W 094°58'3 6.9
2017-Jun-12 02:30N 29°37' W 095°01'0 0.3
2017-Jun-12 02:00N 29°37' W 095°02'0 0.0
2017-Jun-12 01:30N 29°37' W 095°02'0 0.0
2017-Jun-12 01:00N 29°37' W 095°02'0 0.0
2017-Jun-12 00:30N 29°37' W 095°02'0 0.0
2017-Jun-12 00:00N 29°37' W 095°02'0 0.0
2017-Jun-11 23:30N 29°37' W 095°02'0 0.0
2017-Jun-11 23:01N 29°37' W 095°02'0 0.0
2017-Jun-11 22:30N 29°37' W 095°02'0 0.0
2017-Jun-11 22:00N 29°37' W 095°02'0 0.0
2017-Jun-11 21:31N 29°37' W 095°02'0 0.0
2017-Jun-11 21:01N 29°37' W 095°02'0 0.0
2017-Jun-11 20:31N 29°37' W 095°02'0 0.0
2017-Jun-11 20:00N 29°37' W 095°02'0 0.0
2017-Jun-11 19:30N 29°37' W 095°02'0 0.0
2017-Jun-11 19:00N 29°37' W 095°02'0 0.0
2017-Jun-11 18:30N 29°37' W 095°02'0 0.0
2017-Jun-11 18:00N 29°37' W 095°02'0 0.0
2017-Jun-11 17:30N 29°37' W 095°02'0 0.0
2017-Jun-11 17:00N 29°37' W 095°02'0 0.0
2017-Jun-11 16:30N 29°37' W 095°02'0 0.0
2017-Jun-11 16:00N 29°37' W 095°02'0 0.0
2017-Jun-11 15:30N 29°37' W 095°02'0 0.1
2017-Jun-11 15:00N 29°37' W 095°01'0 0.0
2017-Jun-11 14:00N 29°37' W 095°01'0 0.0
2017-Jun-11 13:30N 29°37' W 095°01'0 0.3
2017-Jun-11 13:00N 29°37' W 095°01'0 0.1
2017-Jun-11 12:30N 29°37' W 095°01'0 0.0
2017-Jun-11 12:00N 29°37' W 095°01'0 0.0
2017-Jun-11 11:30N 29°37' W 095°01'0 0.0
2017-Jun-11 11:00N 29°37' W 095°01'0 0.0
2017-Jun-11 10:30N 29°37' W 095°01'0 0.0
2017-Jun-11 10:00N 29°37' W 095°01'0 0.3
2017-Jun-11 09:30N 29°37' W 095°01'3 6.5
2017-Jun-11 09:00N 29°37' W 094°57'3 7.0
2017-Jun-11 08:30N 29°40' W 094°59'3 6.6
2017-Jun-11 07:59N 29°43' W 095°01'  

Dump ship's entire track history